Cheshire, CT (06408)

4:29 AM EDT on November 01, 2014 (GMT -0400)
Rogers Orchards Sunnymount Farm | Change Station
CLOSE
Current Station
Personal Weather Station
Location: Southington, CT
Elevation: 666 ft
Nearby Weather Stations

Elev 666 ft 41.56 °N, 72.94 °W | Updated 60 seconds ago

Overcast
Overcast
43.1 °F
Feels Like 38 °F
N
9.0
Wind Variable Wind from North
Gusts 11.0 mph

Today
High -- | Low -- °F
--% Chance of Precip.
Yesterday
High -- | Low -- °F
Precip. -- in
7:23 AM 5:46 PM
Waxing Gibbous, 64% visible
Pressure 29.87 in
Visibility 10.0 miles
Clouds Overcast 6500 ft
Windchill 38 °F
Dew Point 39 °F
Humidity 87%
Rainfall 0.00 in
Snow Depth Not available.
UV 0 out of 12
Pollen .20 out of 12
Air Quality Not available.
Flu Activity Not available.
METAR KMMK 010753Z AUTO 01004KT 10SM OVC065 07/03 A2987 RMK AO2 SLP115 T00720028 TSNO

More Conditions Fewer Conditions

Pressure 29.87 in
Visibility 10.0 miles
Clouds Overcast 6500 ft
Windchill 38 °F
Dew Point 39 °F
Humidity 87%
Rainfall 0.00 in
Snow Depth Not available.
UV 0 out of 12
Pollen .20 out of 12
Air Quality Not available.
Flu Activity Not available.
METAR KMMK 010753Z AUTO 01004KT 10SM OVC065 07/03 A2987 RMK AO2 SLP115 T00720028 TSNO

More Conditions Fewer Conditions

10-Day Weather Forecast

Almanac

Astronomy

Nov. 01, 2014 Rise Set
Actual Time
Civil Twilight
Nautical Twilight
Astronomical Twilight
Moon
Length of Visible Light
Length of Day
Tomorrow will be .
, % of the Moon is Illuminated

Today's Extremes

State Highs State Lows

Community

WunderPhotos

Upload Photos

1,766,866 photos uploaded!

WunderBlogs® & News

Nearby

Air Quality

  Air Quality AQ Index Pollutant
Not available.

Snow Depth

Station Depth Elevation

Earthquake Activity

City Distance Mag. Time & Date
Minimum magnitude displayed is 2.5.

Coastal Water Temperatures

Place Temperature

Nearby Weather Stations